sensor_id;sensor_type;location;lat;lon;timestamp;temperature;humidity
68701;DHT22;55682;51.114;5.882;2023-04-03T00:00:29;3.83;74.08
68701;DHT22;55682;51.114;5.882;2023-04-03T00:02:54;3.83;74.22
68701;DHT22;55682;51.114;5.882;2023-04-03T00:05:20;3.79;74.31
68701;DHT22;55682;51.114;5.882;2023-04-03T00:07:46;3.80;74.16
68701;DHT22;55682;51.114;5.882;2023-04-03T00:10:12;3.77;74.18
68701;DHT22;55682;51.114;5.882;2023-04-03T00:12:37;3.78;74.12
68701;DHT22;55682;51.114;5.882;2023-04-03T00:15:03;3.72;74.19
68701;DHT22;55682;51.114;5.882;2023-04-03T00:17:29;3.69;74.61
68701;DHT22;55682;51.114;5.882;2023-04-03T00:19:55;3.67;74.70
68701;DHT22;55682;51.114;5.882;2023-04-03T00:22:20;3.67;74.59
68701;DHT22;55682;51.114;5.882;2023-04-03T00:24:46;3.64;74.66
68701;DHT22;55682;51.114;5.882;2023-04-03T00:27:11;3.62;74.69
68701;DHT22;55682;51.114;5.882;2023-04-03T00:29:37;3.61;74.83
68701;DHT22;55682;51.114;5.882;2023-04-03T00:32:03;3.56;75.19
68701;DHT22;55682;51.114;5.882;2023-04-03T00:34:28;3.54;75.18
68701;DHT22;55682;51.114;5.882;2023-04-03T00:36:54;3.49;75.29
68701;DHT22;55682;51.114;5.882;2023-04-03T00:39:19;3.50;75.34
68701;DHT22;55682;51.114;5.882;2023-04-03T00:41:45;3.47;75.31
68701;DHT22;55682;51.114;5.882;2023-04-03T00:45:21;3.44;75.50
68701;DHT22;55682;51.114;5.882;2023-04-03T00:47:11;3.42;75.45
68701;DHT22;55682;51.114;5.882;2023-04-03T00:49:39;3.40;75.63
68701;DHT22;55682;51.114;5.882;2023-04-03T00:52:12;3.41;75.50
68701;DHT22;55682;51.114;5.882;2023-04-03T00:54:41;3.39;75.51
68701;DHT22;55682;51.114;5.882;2023-04-03T00:57:10;3.36;75.53
68701;DHT22;55682;51.114;5.882;2023-04-03T00:59:49;3.34;75.53
68701;DHT22;55682;51.114;5.882;2023-04-03T01:02:16;3.31;75.67
68701;DHT22;55682;51.114;5.882;2023-04-03T01:04:43;3.31;75.63
68701;DHT22;55682;51.114;5.882;2023-04-03T01:07:12;3.29;75.63
68701;DHT22;55682;51.114;5.882;2023-04-03T01:09:40;3.27;75.54
68701;DHT22;55682;51.114;5.882;2023-04-03T01:12:30;3.25;75.49
68701;DHT22;55682;51.114;5.882;2023-04-03T01:14:59;3.21;75.49
68701;DHT22;55682;51.114;5.882;2023-04-03T01:25:38;3.12;75.73
68701;DHT22;55682;51.114;5.882;2023-04-03T01:28:05;3.10;75.75
68701;DHT22;55682;51.114;5.882;2023-04-03T01:30:36;3.09;75.80
68701;DHT22;55682;51.114;5.882;2023-04-03T01:33:06;3.05;75.84
68701;DHT22;55682;51.114;5.882;2023-04-03T01:35:32;3.04;75.85
68701;DHT22;55682;51.114;5.882;2023-04-03T01:37:58;3.02;75.85
68701;DHT22;55682;51.114;5.882;2023-04-03T01:40:23;3.00;76.05
68701;DHT22;55682;51.114;5.882;2023-04-03T01:42:49;2.99;75.97
68701;DHT22;55682;51.114;5.882;2023-04-03T01:45:15;2.98;75.94
68701;DHT22;55682;51.114;5.882;2023-04-03T01:47:40;2.93;75.95
68701;DHT22;55682;51.114;5.882;2023-04-03T01:50:06;2.88;76.04
68701;DHT22;55682;51.114;5.882;2023-04-03T01:52:34;2.88;76.13
68701;DHT22;55682;51.114;5.882;2023-04-03T01:54:59;2.87;76.19
68701;DHT22;55682;51.114;5.882;2023-04-03T01:57:25;2.84;76.32
68701;DHT22;55682;51.114;5.882;2023-04-03T01:59:51;2.83;76.36
68701;DHT22;55682;51.114;5.882;2023-04-03T02:02:16;2.82;76.54
68701;DHT22;55682;51.114;5.882;2023-04-03T02:04:42;2.83;76.69
68701;DHT22;55682;51.114;5.882;2023-04-03T02:07:08;2.82;76.75
68701;DHT22;55682;51.114;5.882;2023-04-03T02:09:34;2.85;76.77
68701;DHT22;55682;51.114;5.882;2023-04-03T02:12:00;2.88;76.69
68701;DHT22;55682;51.114;5.882;2023-04-03T02:14:25;2.86;76.85
68701;DHT22;55682;51.114;5.882;2023-04-03T02:16:53;2.86;76.90
68701;DHT22;55682;51.114;5.882;2023-04-03T02:19:20;2.86;76.91
68701;DHT22;55682;51.114;5.882;2023-04-03T02:21:46;2.87;76.96
68701;DHT22;55682;51.114;5.882;2023-04-03T02:24:11;2.88;76.90
68701;DHT22;55682;51.114;5.882;2023-04-03T02:26:37;2.91;76.83
68701;DHT22;55682;51.114;5.882;2023-04-03T02:29:04;2.90;76.89
68701;DHT22;55682;51.114;5.882;2023-04-03T02:31:29;2.90;76.92
68701;DHT22;55682;51.114;5.882;2023-04-03T02:33:56;2.91;76.90
68701;DHT22;55682;51.114;5.882;2023-04-03T02:36:22;2.90;76.95
68701;DHT22;55682;51.114;5.882;2023-04-03T02:38:52;2.90;76.95
68701;DHT22;55682;51.114;5.882;2023-04-03T02:41:18;2.87;77.21
68701;DHT22;55682;51.114;5.882;2023-04-03T02:43:43;2.84;77.34
68701;DHT22;55682;51.114;5.882;2023-04-03T02:46:09;2.83;77.36
68701;DHT22;55682;51.114;5.882;2023-04-03T02:48:36;2.80;77.60
68701;DHT22;55682;51.114;5.882;2023-04-03T02:51:02;2.78;77.84
68701;DHT22;55682;51.114;5.882;2023-04-03T02:53:27;2.79;78.09
68701;DHT22;55682;51.114;5.882;2023-04-03T02:55:53;2.79;78.39
68701;DHT22;55682;51.114;5.882;2023-04-03T02:58:19;2.79;78.63
68701;DHT22;55682;51.114;5.882;2023-04-03T03:00:45;2.78;78.69
68701;DHT22;55682;51.114;5.882;2023-04-03T03:03:10;2.76;78.81
68701;DHT22;55682;51.114;5.882;2023-04-03T03:05:36;2.75;78.88
68701;DHT22;55682;51.114;5.882;2023-04-03T03:08:02;2.74;79.06
68701;DHT22;55682;51.114;5.882;2023-04-03T03:10:27;2.74;79.25
68701;DHT22;55682;51.114;5.882;2023-04-03T03:12:53;2.72;79.55
68701;DHT22;55682;51.114;5.882;2023-04-03T03:15:18;2.73;79.78
68701;DHT22;55682;51.114;5.882;2023-04-03T03:17:45;2.75;79.85
68701;DHT22;55682;51.114;5.882;2023-04-03T03:20:11;2.74;79.88
68701;DHT22;55682;51.114;5.882;2023-04-03T03:22:37;2.74;79.98
68701;DHT22;55682;51.114;5.882;2023-04-03T03:25:03;2.74;79.95
68701;DHT22;55682;51.114;5.882;2023-04-03T03:27:29;2.72;79.88
68701;DHT22;55682;51.114;5.882;2023-04-03T03:29:55;2.72;79.79
68701;DHT22;55682;51.114;5.882;2023-04-03T03:32:21;2.72;79.81
68701;DHT22;55682;51.114;5.882;2023-04-03T03:34:46;2.71;79.78
68701;DHT22;55682;51.114;5.882;2023-04-03T03:37:12;2.72;79.78
68701;DHT22;55682;51.114;5.882;2023-04-03T03:39:38;2.69;79.83
68701;DHT22;55682;51.114;5.882;2023-04-03T03:42:03;2.72;79.77
68701;DHT22;55682;51.114;5.882;2023-04-03T03:44:29;2.69;79.89
68701;DHT22;55682;51.114;5.882;2023-04-03T03:46:55;2.65;79.86
68701;DHT22;55682;51.114;5.882;2023-04-03T03:49:22;2.65;79.84
68701;DHT22;55682;51.114;5.882;2023-04-03T03:51:47;2.60;79.80
68701;DHT22;55682;51.114;5.882;2023-04-03T03:54:14;2.57;79.91
68701;DHT22;55682;51.114;5.882;2023-04-03T03:56:40;2.56;79.95
68701;DHT22;55682;51.114;5.882;2023-04-03T03:59:05;2.52;80.08
68701;DHT22;55682;51.114;5.882;2023-04-03T04:01:33;2.50;80.14
68701;DHT22;55682;51.114;5.882;2023-04-03T04:04:00;2.49;80.24
68701;DHT22;55682;51.114;5.882;2023-04-03T04:06:29;2.49;80.20
68701;DHT22;55682;51.114;5.882;2023-04-03T04:08:59;2.47;80.26
68701;DHT22;55682;51.114;5.882;2023-04-03T04:11:24;2.45;80.40
68701;DHT22;55682;51.114;5.882;2023-04-03T04:13:52;2.42;80.34
68701;DHT22;55682;51.114;5.882;2023-04-03T04:16:20;2.43;80.51
68701;DHT22;55682;51.114;5.882;2023-04-03T04:18:45;2.40;80.49
68701;DHT22;55682;51.114;5.882;2023-04-03T04:21:11;2.36;80.62
68701;DHT22;55682;51.114;5.882;2023-04-03T04:23:38;2.35;80.62
68701;DHT22;55682;51.114;5.882;2023-04-03T04:26:04;2.31;80.56
68701;DHT22;55682;51.114;5.882;2023-04-03T04:28:33;2.29;80.49
68701;DHT22;55682;51.114;5.882;2023-04-03T04:31:01;2.26;80.50
68701;DHT22;55682;51.114;5.882;2023-04-03T04:33:27;2.26;80.49
68701;DHT22;55682;51.114;5.882;2023-04-03T04:35:54;2.25;80.47
68701;DHT22;55682;51.114;5.882;2023-04-03T04:38:21;2.23;80.57
68701;DHT22;55682;51.114;5.882;2023-04-03T04:40:48;2.21;80.78
68701;DHT22;55682;51.114;5.882;2023-04-03T04:43:14;2.19;81.10
68701;DHT22;55682;51.114;5.882;2023-04-03T04:45:42;2.19;80.97
68701;DHT22;55682;51.114;5.882;2023-04-03T04:48:08;2.21;80.89
68701;DHT22;55682;51.114;5.882;2023-04-03T04:50:34;2.19;80.94
68701;DHT22;55682;51.114;5.882;2023-04-03T04:52:59;2.15;80.94
68701;DHT22;55682;51.114;5.882;2023-04-03T04:55:25;2.15;81.00
68701;DHT22;55682;51.114;5.882;2023-04-03T04:57:51;2.15;80.93
68701;DHT22;55682;51.114;5.882;2023-04-03T05:00:17;2.14;80.83
68701;DHT22;55682;51.114;5.882;2023-04-03T05:02:43;2.12;80.95
68701;DHT22;55682;51.114;5.882;2023-04-03T05:05:09;2.11;81.17
68701;DHT22;55682;51.114;5.882;2023-04-03T05:07:36;2.10;81.20
68701;DHT22;55682;51.114;5.882;2023-04-03T05:10:03;2.15;80.83
68701;DHT22;55682;51.114;5.882;2023-04-03T05:12:30;2.19;80.85
68701;DHT22;55682;51.114;5.882;2023-04-03T05:14:59;2.22;80.94
68701;DHT22;55682;51.114;5.882;2023-04-03T05:17:26;2.19;80.83
68701;DHT22;55682;51.114;5.882;2023-04-03T05:19:55;2.25;80.79
68701;DHT22;55682;51.114;5.882;2023-04-03T05:22:21;2.28;80.61
68701;DHT22;55682;51.114;5.882;2023-04-03T05:24:48;2.46;80.64
68701;DHT22;55682;51.114;5.882;2023-04-03T05:27:15;2.98;80.72
68701;DHT22;55682;51.114;5.882;2023-04-03T05:29:45;3.80;78.70
68701;DHT22;55682;51.114;5.882;2023-04-03T05:32:16;4.58;75.98
68701;DHT22;55682;51.114;5.882;2023-04-03T05:34:42;5.21;73.34
68701;DHT22;55682;51.114;5.882;2023-04-03T05:37:08;5.64;70.41
68701;DHT22;55682;51.114;5.882;2023-04-03T05:39:34;5.57;69.60
68701;DHT22;55682;51.114;5.882;2023-04-03T05:42:01;6.12;69.65
68701;DHT22;55682;51.114;5.882;2023-04-03T05:44:27;6.83;67.53
68701;DHT22;55682;51.114;5.882;2023-04-03T05:46:54;7.46;65.22
68701;DHT22;55682;51.114;5.882;2023-04-03T05:49:20;7.97;63.24
68701;DHT22;55682;51.114;5.882;2023-04-03T05:51:45;8.36;61.41
68701;DHT22;55682;51.114;5.882;2023-04-03T05:54:25;8.74;60.30
68701;DHT22;55682;51.114;5.882;2023-04-03T05:56:55;9.05;58.93
68701;DHT22;55682;51.114;5.882;2023-04-03T05:59:22;9.26;57.32
68701;DHT22;55682;51.114;5.882;2023-04-03T06:01:50;9.61;56.92
68701;DHT22;55682;51.114;5.882;2023-04-03T06:04:17;9.89;56.08
68701;DHT22;55682;51.114;5.882;2023-04-03T06:06:48;10.09;52.12
68701;DHT22;55682;51.114;5.882;2023-04-03T06:09:15;10.23;54.54
68701;DHT22;55682;51.114;5.882;2023-04-03T06:11:41;10.75;53.07
68701;DHT22;55682;51.114;5.882;2023-04-03T06:14:07;11.01;51.75
68701;DHT22;55682;51.114;5.882;2023-04-03T06:16:34;10.89;51.22
68701;DHT22;55682;51.114;5.882;2023-04-03T06:19:00;10.84;49.18
68701;DHT22;55682;51.114;5.882;2023-04-03T06:21:26;11.22;50.85
68701;DHT22;55682;51.114;5.882;2023-04-03T06:23:52;11.30;49.69
68701;DHT22;55682;51.114;5.882;2023-04-03T06:26:18;11.48;50.56
68701;DHT22;55682;51.114;5.882;2023-04-03T06:28:43;12.07;49.64
68701;DHT22;55682;51.114;5.882;2023-04-03T06:31:09;11.92;49.09
68701;DHT22;55682;51.114;5.882;2023-04-03T06:33:35;12.29;48.19
68701;DHT22;55682;51.114;5.882;2023-04-03T06:36:04;12.53;46.99
68701;DHT22;55682;51.114;5.882;2023-04-03T06:38:31;12.16;46.12
68701;DHT22;55682;51.114;5.882;2023-04-03T06:40:57;11.72;47.89
68701;DHT22;55682;51.114;5.882;2023-04-03T06:43:22;11.98;47.70
68701;DHT22;55682;51.114;5.882;2023-04-03T06:45:48;12.20;46.80
68701;DHT22;55682;51.114;5.882;2023-04-03T06:48:14;12.38;46.63
68701;DHT22;55682;51.114;5.882;2023-04-03T06:50:39;12.56;45.04
68701;DHT22;55682;51.114;5.882;2023-04-03T06:53:05;12.95;46.47
68701;DHT22;55682;51.114;5.882;2023-04-03T06:55:32;13.49;42.69
68701;DHT22;55682;51.114;5.882;2023-04-03T06:57:58;13.46;44.25
68701;DHT22;55682;51.114;5.882;2023-04-03T07:00:24;13.64;41.99
68701;DHT22;55682;51.114;5.882;2023-04-03T07:02:50;13.65;40.82
68701;DHT22;55682;51.114;5.882;2023-04-03T07:05:17;13.10;43.41
68701;DHT22;55682;51.114;5.882;2023-04-03T07:07:43;12.86;45.68
68701;DHT22;55682;51.114;5.882;2023-04-03T07:10:09;12.59;44.29
68701;DHT22;55682;51.114;5.882;2023-04-03T07:12:35;12.97;44.88
68701;DHT22;55682;51.114;5.882;2023-04-03T07:15:01;13.27;43.48
68701;DHT22;55682;51.114;5.882;2023-04-03T07:17:27;13.79;42.94
68701;DHT22;55682;51.114;5.882;2023-04-03T07:19:52;14.26;43.01
68701;DHT22;55682;51.114;5.882;2023-04-03T07:22:18;14.54;41.24
68701;DHT22;55682;51.114;5.882;2023-04-03T07:24:44;14.68;40.34
68701;DHT22;55682;51.114;5.882;2023-04-03T07:27:09;14.38;40.59
68701;DHT22;55682;51.114;5.882;2023-04-03T07:29:36;14.73;41.23
68701;DHT22;55682;51.114;5.882;2023-04-03T07:32:02;14.94;38.78
68701;DHT22;55682;51.114;5.882;2023-04-03T07:34:28;15.23;39.81
68701;DHT22;55682;51.114;5.882;2023-04-03T07:36:53;14.92;39.07
68701;DHT22;55682;51.114;5.882;2023-04-03T07:39:20;14.60;40.03
68701;DHT22;55682;51.114;5.882;2023-04-03T07:41:45;14.32;39.38
68701;DHT22;55682;51.114;5.882;2023-04-03T07:44:11;14.24;39.21
68701;DHT22;55682;51.114;5.882;2023-04-03T07:46:37;14.55;40.84
68701;DHT22;55682;51.114;5.882;2023-04-03T07:49:03;15.17;39.63
68701;DHT22;55682;51.114;5.882;2023-04-03T07:51:28;15.76;37.30
68701;DHT22;55682;51.114;5.882;2023-04-03T07:53:55;15.81;36.53
68701;DHT22;55682;51.114;5.882;2023-04-03T07:56:21;15.52;36.56
68701;DHT22;55682;51.114;5.882;2023-04-03T07:58:47;15.90;37.81
68701;DHT22;55682;51.114;5.882;2023-04-03T08:01:12;15.87;37.05
68701;DHT22;55682;51.114;5.882;2023-04-03T08:03:38;15.93;37.53
68701;DHT22;55682;51.114;5.882;2023-04-03T08:06:07;16.22;37.27
68701;DHT22;55682;51.114;5.882;2023-04-03T08:08:33;17.26;35.89
68701;DHT22;55682;51.114;5.882;2023-04-03T08:11:02;18.30;33.20
68701;DHT22;55682;51.114;5.882;2023-04-03T08:13:29;19.09;31.78
68701;DHT22;55682;51.114;5.882;2023-04-03T08:15:55;19.84;30.02
68701;DHT22;55682;51.114;5.882;2023-04-03T08:18:23;20.11;29.46
68701;DHT22;55682;51.114;5.882;2023-04-03T08:20:51;20.27;28.97
68701;DHT22;55682;51.114;5.882;2023-04-03T08:23:17;19.94;28.14
68701;DHT22;55682;51.114;5.882;2023-04-03T08:25:44;19.44;28.63
68701;DHT22;55682;51.114;5.882;2023-04-03T08:28:11;19.53;28.42
68701;DHT22;55682;51.114;5.882;2023-04-03T08:30:40;19.76;27.75
68701;DHT22;55682;51.114;5.882;2023-04-03T08:33:08;18.69;28.20
68701;DHT22;55682;51.114;5.882;2023-04-03T08:35:41;16.70;31.56
68701;DHT22;55682;51.114;5.882;2023-04-03T08:38:09;16.14;32.78
68701;DHT22;55682;51.114;5.882;2023-04-03T08:40:34;16.78;33.61
68701;DHT22;55682;51.114;5.882;2023-04-03T08:43:28;18.25;31.04
68701;DHT22;55682;51.114;5.882;2023-04-03T08:46:00;18.67;27.85
68701;DHT22;55682;51.114;5.882;2023-04-03T08:48:41;17.09;28.19
68701;DHT22;55682;51.114;5.882;2023-04-03T08:51:15;16.04;31.37
68701;DHT22;55682;51.114;5.882;2023-04-03T08:53:57;17.30;30.71
68701;DHT22;55682;51.114;5.882;2023-04-03T08:56:24;18.38;27.91
68701;DHT22;55682;51.114;5.882;2023-04-03T08:59:01;17.79;27.84
68701;DHT22;55682;51.114;5.882;2023-04-03T09:01:43;18.22;27.78
68701;DHT22;55682;51.114;5.882;2023-04-03T09:04:13;18.74;26.85
68701;DHT22;55682;51.114;5.882;2023-04-03T09:06:43;19.31;24.84
68701;DHT22;55682;51.114;5.882;2023-04-03T09:09:32;19.27;25.42
68701;DHT22;55682;51.114;5.882;2023-04-03T09:12:21;17.92;26.88
68701;DHT22;55682;51.114;5.882;2023-04-03T09:17:40;17.46;28.22
68701;DHT22;55682;51.114;5.882;2023-04-03T09:20:21;17.88;25.42
68701;DHT22;55682;51.114;5.882;2023-04-03T09:22:50;17.31;27.40
68701;DHT22;55682;51.114;5.882;2023-04-03T09:25:31;16.96;25.10
68701;DHT22;55682;51.114;5.882;2023-04-03T09:28:00;15.42;26.30
68701;DHT22;55682;51.114;5.882;2023-04-03T09:30:27;15.43;27.97
68701;DHT22;55682;51.114;5.882;2023-04-03T09:32:55;16.37;24.15
68701;DHT22;55682;51.114;5.882;2023-04-03T09:35:31;17.65;21.77
68701;DHT22;55682;51.114;5.882;2023-04-03T09:38:15;18.08;20.23
68701;DHT22;55682;51.114;5.882;2023-04-03T09:40:49;17.08;19.02
68701;DHT22;55682;51.114;5.882;2023-04-03T09:43:26;16.81;20.88
68701;DHT22;55682;51.114;5.882;2023-04-03T09:45:53;17.16;17.48
68701;DHT22;55682;51.114;5.882;2023-04-03T09:48:22;17.14;18.74
68701;DHT22;55682;51.114;5.882;2023-04-03T09:58:50;15.81;21.66
68701;DHT22;55682;51.114;5.882;2023-04-03T10:01:33;16.21;22.91
68701;DHT22;55682;51.114;5.882;2023-04-03T10:04:18;16.81;22.22
68701;DHT22;55682;51.114;5.882;2023-04-03T10:06:45;17.05;21.43
68701;DHT22;55682;51.114;5.882;2023-04-03T10:09:28;17.60;18.62
68701;DHT22;55682;51.114;5.882;2023-04-03T10:12:07;16.98;18.73
68701;DHT22;55682;51.114;5.882;2023-04-03T10:14:37;16.10;21.47
68701;DHT22;55682;51.114;5.882;2023-04-03T10:17:21;15.54;22.88
68701;DHT22;55682;51.114;5.882;2023-04-03T10:20:37;15.36;21.90
68701;DHT22;55682;51.114;5.882;2023-04-03T10:22:56;16.04;21.56
68701;DHT22;55682;51.114;5.882;2023-04-03T10:25:43;15.46;23.63
68701;DHT22;55682;51.114;5.882;2023-04-03T10:36:32;16.34;21.93
68701;DHT22;55682;51.114;5.882;2023-04-03T10:42:02;15.68;20.50
68701;DHT22;55682;51.114;5.882;2023-04-03T10:49:54;14.85;26.14
68701;DHT22;55682;51.114;5.882;2023-04-03T10:57:39;15.34;24.70
68701;DHT22;55682;51.114;5.882;2023-04-03T11:00:16;16.13;24.85
68701;DHT22;55682;51.114;5.882;2023-04-03T11:03:05;16.52;23.16
68701;DHT22;55682;51.114;5.882;2023-04-03T11:05:46;16.90;22.72
68701;DHT22;55682;51.114;5.882;2023-04-03T11:08:46;18.49;19.60
68701;DHT22;55682;51.114;5.882;2023-04-03T11:11:19;17.76;20.90
68701;DHT22;55682;51.114;5.882;2023-04-03T11:13:56;17.45;21.49
68701;DHT22;55682;51.114;5.882;2023-04-03T11:16:27;17.06;22.20
68701;DHT22;55682;51.114;5.882;2023-04-03T11:19:12;16.74;22.60
68701;DHT22;55682;51.114;5.882;2023-04-03T11:21:46;16.58;23.49
68701;DHT22;55682;51.114;5.882;2023-04-03T11:24:24;17.14;23.05
68701;DHT22;55682;51.114;5.882;2023-04-03T11:26:54;17.13;23.11
68701;DHT22;55682;51.114;5.882;2023-04-03T11:29:33;17.19;23.41
68701;DHT22;55682;51.114;5.882;2023-04-03T11:34:55;15.95;24.43
68701;DHT22;55682;51.114;5.882;2023-04-03T11:37:36;15.65;25.73
68701;DHT22;55682;51.114;5.882;2023-04-03T11:40:28;15.45;25.81
68701;DHT22;55682;51.114;5.882;2023-04-03T11:43:06;16.03;24.18
68701;DHT22;55682;51.114;5.882;2023-04-03T11:51:37;18.18;20.67
68701;DHT22;55682;51.114;5.882;2023-04-03T11:53:48;16.67;23.11
68701;DHT22;55682;51.114;5.882;2023-04-03T12:04:25;16.93;25.10
68701;DHT22;55682;51.114;5.882;2023-04-03T12:12:35;14.87;26.39
68701;DHT22;55682;51.114;5.882;2023-04-03T12:15:26;15.29;26.78
68701;DHT22;55682;51.114;5.882;2023-04-03T12:21:13;16.61;25.43
68701;DHT22;55682;51.114;5.882;2023-04-03T12:34:51;13.77;30.69
68701;DHT22;55682;51.114;5.882;2023-04-03T12:40:49;12.86;31.88
68701;DHT22;55682;51.114;5.882;2023-04-03T12:48:33;13.19;32.77
68701;DHT22;55682;51.114;5.882;2023-04-03T12:51:03;12.67;31.69
68701;DHT22;55682;51.114;5.882;2023-04-03T12:53:35;12.41;33.53
68701;DHT22;55682;51.114;5.882;2023-04-03T12:56:20;12.47;33.79
68701;DHT22;55682;51.114;5.882;2023-04-03T12:58:47;12.29;34.56
68701;DHT22;55682;51.114;5.882;2023-04-03T13:01:16;12.42;34.51
68701;DHT22;55682;51.114;5.882;2023-04-03T13:03:53;12.42;34.58
68701;DHT22;55682;51.114;5.882;2023-04-03T13:06:27;12.41;33.96
68701;DHT22;55682;51.114;5.882;2023-04-03T13:08:56;12.67;34.60
68701;DHT22;55682;51.114;5.882;2023-04-03T13:11:27;12.78;33.25
68701;DHT22;55682;51.114;5.882;2023-04-03T13:13:59;13.05;33.06
68701;DHT22;55682;51.114;5.882;2023-04-03T13:16:26;13.38;31.19
68701;DHT22;55682;51.114;5.882;2023-04-03T13:18:54;12.92;33.05
68701;DHT22;55682;51.114;5.882;2023-04-03T13:23:51;13.14;32.31
68701;DHT22;55682;51.114;5.882;2023-04-03T13:26:21;12.72;33.52
68701;DHT22;55682;51.114;5.882;2023-04-03T13:28:48;12.58;34.23
68701;DHT22;55682;51.114;5.882;2023-04-03T13:36:26;12.34;33.75
68701;DHT22;55682;51.114;5.882;2023-04-03T13:41:41;12.56;33.22
68701;DHT22;55682;51.114;5.882;2023-04-03T13:46:53;12.69;32.90
68701;DHT22;55682;51.114;5.882;2023-04-03T13:51:49;11.72;34.32
68701;DHT22;55682;51.114;5.882;2023-04-03T13:54:32;11.97;35.02
68701;DHT22;55682;51.114;5.882;2023-04-03T13:57:00;12.35;34.77
68701;DHT22;55682;51.114;5.882;2023-04-03T13:59:34;12.85;32.23
68701;DHT22;55682;51.114;5.882;2023-04-03T14:04:43;12.78;33.60
68701;DHT22;55682;51.114;5.882;2023-04-03T14:07:10;12.73;32.47
68701;DHT22;55682;51.114;5.882;2023-04-03T14:09:36;12.81;32.15
68701;DHT22;55682;51.114;5.882;2023-04-03T14:12:12;12.60;32.93
68701;DHT22;55682;51.114;5.882;2023-04-03T14:14:39;12.45;35.09
68701;DHT22;55682;51.114;5.882;2023-04-03T14:17:18;12.63;33.60
68701;DHT22;55682;51.114;5.882;2023-04-03T14:19:45;11.82;34.82
68701;DHT22;55682;51.114;5.882;2023-04-03T14:22:31;11.75;33.79
68701;DHT22;55682;51.114;5.882;2023-04-03T14:24:58;11.81;33.79
68701;DHT22;55682;51.114;5.882;2023-04-03T14:27:33;11.88;34.17
68701;DHT22;55682;51.114;5.882;2023-04-03T14:30:00;12.08;33.61
68701;DHT22;55682;51.114;5.882;2023-04-03T14:32:28;11.99;34.44
68701;DHT22;55682;51.114;5.882;2023-04-03T14:34:54;11.94;33.66
68701;DHT22;55682;51.114;5.882;2023-04-03T14:37:23;12.08;33.61
68701;DHT22;55682;51.114;5.882;2023-04-03T14:39:51;11.75;34.32
68701;DHT22;55682;51.114;5.882;2023-04-03T14:42:33;11.99;33.12
68701;DHT22;55682;51.114;5.882;2023-04-03T14:45:01;11.99;34.12
68701;DHT22;55682;51.114;5.882;2023-04-03T14:47:29;11.92;33.84
68701;DHT22;55682;51.114;5.882;2023-04-03T14:49:56;11.94;33.70
68701;DHT22;55682;51.114;5.882;2023-04-03T14:52:26;12.32;32.72
68701;DHT22;55682;51.114;5.882;2023-04-03T14:54:53;12.22;32.42
68701;DHT22;55682;51.114;5.882;2023-04-03T14:57:23;12.36;32.50
68701;DHT22;55682;51.114;5.882;2023-04-03T14:59:49;11.83;33.31
68701;DHT22;55682;51.114;5.882;2023-04-03T15:02:34;11.86;34.07
68701;DHT22;55682;51.114;5.882;2023-04-03T15:05:04;12.08;34.22
68701;DHT22;55682;51.114;5.882;2023-04-03T15:07:35;12.15;33.55
68701;DHT22;55682;51.114;5.882;2023-04-03T15:10:25;11.81;34.24
68701;DHT22;55682;51.114;5.882;2023-04-03T15:12:53;11.52;33.15
68701;DHT22;55682;51.114;5.882;2023-04-03T15:15:21;11.32;33.60
68701;DHT22;55682;51.114;5.882;2023-04-03T15:17:51;11.20;34.15
68701;DHT22;55682;51.114;5.882;2023-04-03T15:20:21;11.42;34.39
68701;DHT22;55682;51.114;5.882;2023-04-03T15:22:48;11.70;34.21
68701;DHT22;55682;51.114;5.882;2023-04-03T15:25:14;11.70;32.19
68701;DHT22;55682;51.114;5.882;2023-04-03T15:27:41;11.88;32.50
68701;DHT22;55682;51.114;5.882;2023-04-03T15:30:08;11.81;32.82
68701;DHT22;55682;51.114;5.882;2023-04-03T15:32:36;11.60;32.54
68701;DHT22;55682;51.114;5.882;2023-04-03T15:35:02;11.52;33.60
68701;DHT22;55682;51.114;5.882;2023-04-03T15:37:28;11.45;33.64
68701;DHT22;55682;51.114;5.882;2023-04-03T15:39:53;11.46;33.41
68701;DHT22;55682;51.114;5.882;2023-04-03T15:42:19;11.52;33.73
68701;DHT22;55682;51.114;5.882;2023-04-03T15:44:45;11.44;35.15
68701;DHT22;55682;51.114;5.882;2023-04-03T15:47:11;11.58;34.57
68701;DHT22;55682;51.114;5.882;2023-04-03T15:49:37;11.31;35.60
68701;DHT22;55682;51.114;5.882;2023-04-03T15:52:04;11.23;35.40
68701;DHT22;55682;51.114;5.882;2023-04-03T15:54:30;11.31;34.25
68701;DHT22;55682;51.114;5.882;2023-04-03T15:56:55;11.54;34.14
68701;DHT22;55682;51.114;5.882;2023-04-03T15:59:21;11.20;34.49
68701;DHT22;55682;51.114;5.882;2023-04-03T16:01:48;11.32;34.60
68701;DHT22;55682;51.114;5.882;2023-04-03T16:04:15;11.10;35.50
68701;DHT22;55682;51.114;5.882;2023-04-03T16:06:41;11.24;35.58
68701;DHT22;55682;51.114;5.882;2023-04-03T16:09:07;11.04;35.96
68701;DHT22;55682;51.114;5.882;2023-04-03T16:11:33;10.69;35.83
68701;DHT22;55682;51.114;5.882;2023-04-03T16:14:01;10.42;36.99
68701;DHT22;55682;51.114;5.882;2023-04-03T16:16:27;10.55;36.37
68701;DHT22;55682;51.114;5.882;2023-04-03T16:18:56;10.59;36.64
68701;DHT22;55682;51.114;5.882;2023-04-03T16:21:23;10.78;36.50
68701;DHT22;55682;51.114;5.882;2023-04-03T16:23:49;10.58;36.76
68701;DHT22;55682;51.114;5.882;2023-04-03T16:26:16;10.48;37.34
68701;DHT22;55682;51.114;5.882;2023-04-03T16:28:43;10.46;36.50
68701;DHT22;55682;51.114;5.882;2023-04-03T16:31:09;10.50;37.19
68701;DHT22;55682;51.114;5.882;2023-04-03T16:33:35;10.80;36.52
68701;DHT22;55682;51.114;5.882;2023-04-03T16:36:03;10.83;36.59
68701;DHT22;55682;51.114;5.882;2023-04-03T16:38:30;10.82;36.62
68701;DHT22;55682;51.114;5.882;2023-04-03T16:40:55;10.50;36.92
68701;DHT22;55682;51.114;5.882;2023-04-03T16:43:25;10.46;36.60
68701;DHT22;55682;51.114;5.882;2023-04-03T16:45:51;10.31;36.69
68701;DHT22;55682;51.114;5.882;2023-04-03T16:48:16;10.28;36.85
68701;DHT22;55682;51.114;5.882;2023-04-03T16:50:46;10.43;37.02
68701;DHT22;55682;51.114;5.882;2023-04-03T16:53:13;10.34;37.70
68701;DHT22;55682;51.114;5.882;2023-04-03T16:55:39;10.19;37.34
68701;DHT22;55682;51.114;5.882;2023-04-03T16:58:05;10.13;37.40
68701;DHT22;55682;51.114;5.882;2023-04-03T17:00:31;10.34;37.82
68701;DHT22;55682;51.114;5.882;2023-04-03T17:02:57;10.28;38.35
68701;DHT22;55682;51.114;5.882;2023-04-03T17:05:22;10.09;38.35
68701;DHT22;55682;51.114;5.882;2023-04-03T17:07:50;10.01;39.12
68701;DHT22;55682;51.114;5.882;2023-04-03T17:10:16;10.09;38.74
68701;DHT22;55682;51.114;5.882;2023-04-03T17:12:42;10.05;39.43
68701;DHT22;55682;51.114;5.882;2023-04-03T17:15:08;10.08;39.54
68701;DHT22;55682;51.114;5.882;2023-04-03T17:17:34;9.76;40.12
68701;DHT22;55682;51.114;5.882;2023-04-03T17:20:01;9.92;39.87
68701;DHT22;55682;51.114;5.882;2023-04-03T17:22:28;9.86;39.62
68701;DHT22;55682;51.114;5.882;2023-04-03T17:24:54;9.67;39.70
68701;DHT22;55682;51.114;5.882;2023-04-03T17:27:20;9.70;39.99
68701;DHT22;55682;51.114;5.882;2023-04-03T17:29:45;9.69;40.23
68701;DHT22;55682;51.114;5.882;2023-04-03T17:32:11;9.72;40.41